sensor_id;sensor_type;location;lat;lon;timestamp;temperature;humidity
22950;DHT22;11641;51.018;4.474;2023-03-03T00:00:13;4.30;99.90
22950;DHT22;11641;51.018;4.474;2023-03-03T00:02:39;4.30;99.90
22950;DHT22;11641;51.018;4.474;2023-03-03T00:05:05;4.30;99.90
22950;DHT22;11641;51.018;4.474;2023-03-03T00:07:31;4.30;99.90
22950;DHT22;11641;51.018;4.474;2023-03-03T00:09:57;4.30;99.90
22950;DHT22;11641;51.018;4.474;2023-03-03T00:14:52;4.30;99.90
22950;DHT22;11641;51.018;4.474;2023-03-03T00:17:27;4.20;99.90
22950;DHT22;11641;51.018;4.474;2023-03-03T00:19:54;4.20;99.90
22950;DHT22;11641;51.018;4.474;2023-03-03T00:22:27;4.10;99.90
22950;DHT22;11641;51.018;4.474;2023-03-03T00:24:54;4.20;99.90
22950;DHT22;11641;51.018;4.474;2023-03-03T00:27:30;4.10;99.90
22950;DHT22;11641;51.018;4.474;2023-03-03T00:29:57;4.10;99.90
22950;DHT22;11641;51.018;4.474;2023-03-03T00:32:40;4.10;99.90
22950;DHT22;11641;51.018;4.474;2023-03-03T00:35:41;4.00;99.90
22950;DHT22;11641;51.018;4.474;2023-03-03T00:38:17;4.10;99.90
22950;DHT22;11641;51.018;4.474;2023-03-03T00:40:43;4.00;99.90
22950;DHT22;11641;51.018;4.474;2023-03-03T00:43:27;4.00;99.90
22950;DHT22;11641;51.018;4.474;2023-03-03T00:45:58;4.00;99.90
22950;DHT22;11641;51.018;4.474;2023-03-03T00:48:27;4.00;99.90
22950;DHT22;11641;51.018;4.474;2023-03-03T00:50:59;3.90;99.90
22950;DHT22;11641;51.018;4.474;2023-03-03T00:53:28;3.90;99.90
22950;DHT22;11641;51.018;4.474;2023-03-03T00:55:54;3.90;99.90
22950;DHT22;11641;51.018;4.474;2023-03-03T00:58:21;3.90;99.90
22950;DHT22;11641;51.018;4.474;2023-03-03T01:00:49;3.90;99.90
22950;DHT22;11641;51.018;4.474;2023-03-03T01:03:20;3.90;99.90
22950;DHT22;11641;51.018;4.474;2023-03-03T01:05:47;3.90;99.90
22950;DHT22;11641;51.018;4.474;2023-03-03T01:08:13;3.90;99.90
22950;DHT22;11641;51.018;4.474;2023-03-03T01:10:48;3.70;99.90
22950;DHT22;11641;51.018;4.474;2023-03-03T01:13:19;3.70;99.90
22950;DHT22;11641;51.018;4.474;2023-03-03T01:15:46;3.60;99.90
22950;DHT22;11641;51.018;4.474;2023-03-03T01:18:13;3.70;99.90
22950;DHT22;11641;51.018;4.474;2023-03-03T01:20:39;3.60;99.90
22950;DHT22;11641;51.018;4.474;2023-03-03T01:23:05;3.70;99.90
22950;DHT22;11641;51.018;4.474;2023-03-03T01:25:31;3.60;99.90
22950;DHT22;11641;51.018;4.474;2023-03-03T01:27:59;3.60;99.90
22950;DHT22;11641;51.018;4.474;2023-03-03T01:30:25;3.60;99.90
22950;DHT22;11641;51.018;4.474;2023-03-03T01:32:51;3.50;99.90
22950;DHT22;11641;51.018;4.474;2023-03-03T01:35:17;3.50;99.90
22950;DHT22;11641;51.018;4.474;2023-03-03T01:37:43;3.40;99.90
22950;DHT22;11641;51.018;4.474;2023-03-03T01:40:24;3.40;99.90
22950;DHT22;11641;51.018;4.474;2023-03-03T01:42:53;3.40;99.90
22950;DHT22;11641;51.018;4.474;2023-03-03T01:45:28;3.60;99.90
22950;DHT22;11641;51.018;4.474;2023-03-03T01:48:09;3.40;99.90
22950;DHT22;11641;51.018;4.474;2023-03-03T01:53:33;3.40;99.90
22950;DHT22;11641;51.018;4.474;2023-03-03T01:55:56;3.40;99.90
22950;DHT22;11641;51.018;4.474;2023-03-03T01:58:27;3.30;99.90
22950;DHT22;11641;51.018;4.474;2023-03-03T02:01:00;3.20;99.90
22950;DHT22;11641;51.018;4.474;2023-03-03T02:03:27;3.30;99.90
22950;DHT22;11641;51.018;4.474;2023-03-03T02:05:57;3.20;99.90
22950;DHT22;11641;51.018;4.474;2023-03-03T02:08:29;3.20;99.90
22950;DHT22;11641;51.018;4.474;2023-03-03T02:11:00;3.20;99.90
22950;DHT22;11641;51.018;4.474;2023-03-03T02:13:30;3.30;99.90
22950;DHT22;11641;51.018;4.474;2023-03-03T02:15:58;3.20;99.90
22950;DHT22;11641;51.018;4.474;2023-03-03T02:18:24;3.20;99.90
22950;DHT22;11641;51.018;4.474;2023-03-03T02:21:17;3.10;99.90
22950;DHT22;11641;51.018;4.474;2023-03-03T02:23:59;3.20;99.90
22950;DHT22;11641;51.018;4.474;2023-03-03T02:26:31;3.10;99.90
22950;DHT22;11641;51.018;4.474;2023-03-03T02:28:58;3.10;99.90
22950;DHT22;11641;51.018;4.474;2023-03-03T02:31:27;3.10;99.90
22950;DHT22;11641;51.018;4.474;2023-03-03T02:33:54;3.00;99.90
22950;DHT22;11641;51.018;4.474;2023-03-03T02:36:38;3.00;99.90
22950;DHT22;11641;51.018;4.474;2023-03-03T02:44:33;3.00;99.90
22950;DHT22;11641;51.018;4.474;2023-03-03T02:47:00;3.10;99.90
22950;DHT22;11641;51.018;4.474;2023-03-03T02:49:31;3.30;99.90
22950;DHT22;11641;51.018;4.474;2023-03-03T02:51:58;3.30;99.90
22950;DHT22;11641;51.018;4.474;2023-03-03T02:54:27;3.50;99.90
22950;DHT22;11641;51.018;4.474;2023-03-03T02:56:53;3.60;99.90
22950;DHT22;11641;51.018;4.474;2023-03-03T02:59:19;3.90;99.90
22950;DHT22;11641;51.018;4.474;2023-03-03T03:01:45;3.90;99.90
22950;DHT22;11641;51.018;4.474;2023-03-03T03:04:14;4.10;99.90
22950;DHT22;11641;51.018;4.474;2023-03-03T03:06:43;4.20;99.90
22950;DHT22;11641;51.018;4.474;2023-03-03T03:09:09;4.20;99.90
22950;DHT22;11641;51.018;4.474;2023-03-03T03:11:36;4.20;99.90
22950;DHT22;11641;51.018;4.474;2023-03-03T03:14:06;4.20;99.90
22950;DHT22;11641;51.018;4.474;2023-03-03T03:16:35;4.20;99.90
22950;DHT22;11641;51.018;4.474;2023-03-03T03:19:02;4.20;99.90
22950;DHT22;11641;51.018;4.474;2023-03-03T03:21:29;4.30;99.90
22950;DHT22;11641;51.018;4.474;2023-03-03T03:23:58;4.40;99.90
22950;DHT22;11641;51.018;4.474;2023-03-03T03:26:24;4.50;99.90
22950;DHT22;11641;51.018;4.474;2023-03-03T03:28:50;4.50;99.90
22950;DHT22;11641;51.018;4.474;2023-03-03T03:31:20;4.50;99.90
22950;DHT22;11641;51.018;4.474;2023-03-03T03:33:46;4.60;99.90
22950;DHT22;11641;51.018;4.474;2023-03-03T03:36:11;4.50;99.90
22950;DHT22;11641;51.018;4.474;2023-03-03T03:38:40;4.40;99.90
22950;DHT22;11641;51.018;4.474;2023-03-03T03:41:06;4.40;99.90
22950;DHT22;11641;51.018;4.474;2023-03-03T03:43:32;4.50;99.90
22950;DHT22;11641;51.018;4.474;2023-03-03T03:45:58;4.50;99.90
22950;DHT22;11641;51.018;4.474;2023-03-03T03:48:24;4.30;99.90
22950;DHT22;11641;51.018;4.474;2023-03-03T03:50:50;4.50;99.90
22950;DHT22;11641;51.018;4.474;2023-03-03T03:53:17;4.60;99.90
22950;DHT22;11641;51.018;4.474;2023-03-03T03:55:44;4.50;99.90
22950;DHT22;11641;51.018;4.474;2023-03-03T03:58:14;4.40;99.90
22950;DHT22;11641;51.018;4.474;2023-03-03T04:00:42;4.60;99.90
22950;DHT22;11641;51.018;4.474;2023-03-03T04:03:08;4.70;99.90
22950;DHT22;11641;51.018;4.474;2023-03-03T04:05:35;4.90;99.90
22950;DHT22;11641;51.018;4.474;2023-03-03T04:08:00;4.90;99.90
22950;DHT22;11641;51.018;4.474;2023-03-03T04:10:26;4.90;99.90
22950;DHT22;11641;51.018;4.474;2023-03-03T04:12:56;4.90;99.90
22950;DHT22;11641;51.018;4.474;2023-03-03T04:15:22;4.80;99.90
22950;DHT22;11641;51.018;4.474;2023-03-03T04:17:48;4.50;99.90
22950;DHT22;11641;51.018;4.474;2023-03-03T04:20:14;4.50;99.90
22950;DHT22;11641;51.018;4.474;2023-03-03T04:22:41;4.60;99.90
22950;DHT22;11641;51.018;4.474;2023-03-03T04:25:08;4.60;99.90
22950;DHT22;11641;51.018;4.474;2023-03-03T04:27:37;4.60;99.90
22950;DHT22;11641;51.018;4.474;2023-03-03T04:30:06;4.60;99.90
22950;DHT22;11641;51.018;4.474;2023-03-03T04:32:32;4.50;99.90
22950;DHT22;11641;51.018;4.474;2023-03-03T04:34:58;4.60;99.90
22950;DHT22;11641;51.018;4.474;2023-03-03T04:37:24;4.50;99.90
22950;DHT22;11641;51.018;4.474;2023-03-03T04:39:50;4.40;99.90
22950;DHT22;11641;51.018;4.474;2023-03-03T04:42:16;4.50;99.90
22950;DHT22;11641;51.018;4.474;2023-03-03T04:44:42;4.50;99.90
22950;DHT22;11641;51.018;4.474;2023-03-03T04:47:08;4.30;99.90
22950;DHT22;11641;51.018;4.474;2023-03-03T04:49:34;4.40;99.90
22950;DHT22;11641;51.018;4.474;2023-03-03T04:52:00;4.20;99.90
22950;DHT22;11641;51.018;4.474;2023-03-03T04:54:25;4.20;99.90
22950;DHT22;11641;51.018;4.474;2023-03-03T04:56:51;4.30;99.90
22950;DHT22;11641;51.018;4.474;2023-03-03T04:59:17;4.20;99.90
22950;DHT22;11641;51.018;4.474;2023-03-03T05:01:42;4.40;99.90
22950;DHT22;11641;51.018;4.474;2023-03-03T05:04:08;4.40;99.90
22950;DHT22;11641;51.018;4.474;2023-03-03T05:06:34;4.40;99.90
22950;DHT22;11641;51.018;4.474;2023-03-03T05:09:00;4.30;99.90
22950;DHT22;11641;51.018;4.474;2023-03-03T05:11:26;4.40;99.90
22950;DHT22;11641;51.018;4.474;2023-03-03T05:13:51;4.30;99.90
22950;DHT22;11641;51.018;4.474;2023-03-03T05:16:17;4.40;99.90
22950;DHT22;11641;51.018;4.474;2023-03-03T05:18:43;4.30;99.90
22950;DHT22;11641;51.018;4.474;2023-03-03T05:21:11;4.40;99.90
22950;DHT22;11641;51.018;4.474;2023-03-03T05:23:37;4.40;99.90
22950;DHT22;11641;51.018;4.474;2023-03-03T05:26:03;4.40;99.90
22950;DHT22;11641;51.018;4.474;2023-03-03T05:28:29;4.40;99.90
22950;DHT22;11641;51.018;4.474;2023-03-03T05:30:55;4.50;99.90
22950;DHT22;11641;51.018;4.474;2023-03-03T05:33:20;4.50;99.90
22950;DHT22;11641;51.018;4.474;2023-03-03T05:35:46;4.40;99.90
22950;DHT22;11641;51.018;4.474;2023-03-03T05:38:12;4.40;99.90
22950;DHT22;11641;51.018;4.474;2023-03-03T05:40:40;4.50;99.90
22950;DHT22;11641;51.018;4.474;2023-03-03T05:43:06;4.50;99.90
22950;DHT22;11641;51.018;4.474;2023-03-03T05:45:32;4.30;99.90
22950;DHT22;11641;51.018;4.474;2023-03-03T05:47:57;4.10;99.90
22950;DHT22;11641;51.018;4.474;2023-03-03T05:50:23;4.10;99.90
22950;DHT22;11641;51.018;4.474;2023-03-03T05:52:50;4.20;99.90
22950;DHT22;11641;51.018;4.474;2023-03-03T05:55:16;4.10;99.90
22950;DHT22;11641;51.018;4.474;2023-03-03T05:57:42;4.20;99.90
22950;DHT22;11641;51.018;4.474;2023-03-03T06:00:08;4.30;99.90
22950;DHT22;11641;51.018;4.474;2023-03-03T06:02:36;4.30;99.90
22950;DHT22;11641;51.018;4.474;2023-03-03T06:05:02;4.30;99.90
22950;DHT22;11641;51.018;4.474;2023-03-03T06:07:31;4.30;99.90
22950;DHT22;11641;51.018;4.474;2023-03-03T06:09:59;4.40;99.90
22950;DHT22;11641;51.018;4.474;2023-03-03T06:12:25;4.40;99.90
22950;DHT22;11641;51.018;4.474;2023-03-03T06:14:50;4.40;99.90
22950;DHT22;11641;51.018;4.474;2023-03-03T06:17:19;4.50;99.90
22950;DHT22;11641;51.018;4.474;2023-03-03T06:19:45;4.20;99.90
22950;DHT22;11641;51.018;4.474;2023-03-03T06:22:12;4.10;99.90
22950;DHT22;11641;51.018;4.474;2023-03-03T06:24:39;4.10;99.90
22950;DHT22;11641;51.018;4.474;2023-03-03T06:27:05;4.20;99.90
22950;DHT22;11641;51.018;4.474;2023-03-03T06:29:31;4.20;99.90
22950;DHT22;11641;51.018;4.474;2023-03-03T06:31:57;4.30;99.90
22950;DHT22;11641;51.018;4.474;2023-03-03T06:34:22;4.30;99.90
22950;DHT22;11641;51.018;4.474;2023-03-03T06:36:48;4.30;99.90
22950;DHT22;11641;51.018;4.474;2023-03-03T06:39:14;4.50;99.90
22950;DHT22;11641;51.018;4.474;2023-03-03T06:41:40;4.50;99.90
22950;DHT22;11641;51.018;4.474;2023-03-03T06:44:05;4.40;99.90
22950;DHT22;11641;51.018;4.474;2023-03-03T06:46:31;4.40;99.90
22950;DHT22;11641;51.018;4.474;2023-03-03T06:48:59;4.30;99.90
22950;DHT22;11641;51.018;4.474;2023-03-03T06:51:30;4.30;99.90
22950;DHT22;11641;51.018;4.474;2023-03-03T06:54:10;4.20;99.90
22950;DHT22;11641;51.018;4.474;2023-03-03T06:56:36;4.20;99.90
22950;DHT22;11641;51.018;4.474;2023-03-03T06:59:10;4.10;99.90
22950;DHT22;11641;51.018;4.474;2023-03-03T07:01:37;4.30;99.90
22950;DHT22;11641;51.018;4.474;2023-03-03T07:07:14;4.50;99.90
22950;DHT22;11641;51.018;4.474;2023-03-03T07:09:40;4.60;99.90
22950;DHT22;11641;51.018;4.474;2023-03-03T07:12:21;4.60;99.90
22950;DHT22;11641;51.018;4.474;2023-03-03T07:14:50;4.40;99.90
22950;DHT22;11641;51.018;4.474;2023-03-03T07:17:22;4.50;99.90
22950;DHT22;11641;51.018;4.474;2023-03-03T07:19:48;4.60;99.90
22950;DHT22;11641;51.018;4.474;2023-03-03T07:22:19;4.60;99.90
22950;DHT22;11641;51.018;4.474;2023-03-03T07:24:57;4.70;99.90
22950;DHT22;11641;51.018;4.474;2023-03-03T07:27:27;4.70;99.90
22950;DHT22;11641;51.018;4.474;2023-03-03T07:29:58;4.70;99.90
22950;DHT22;11641;51.018;4.474;2023-03-03T07:32:47;4.90;99.90
22950;DHT22;11641;51.018;4.474;2023-03-03T07:35:36;4.90;99.90
22950;DHT22;11641;51.018;4.474;2023-03-03T07:38:45;4.90;99.90
22950;DHT22;11641;51.018;4.474;2023-03-03T07:41:07;4.90;99.90
22950;DHT22;11641;51.018;4.474;2023-03-03T07:43:59;4.80;99.90
22950;DHT22;11641;51.018;4.474;2023-03-03T07:46:44;5.00;99.90
22950;DHT22;11641;51.018;4.474;2023-03-03T07:49:25;4.80;99.90
22950;DHT22;11641;51.018;4.474;2023-03-03T07:51:55;5.00;99.90
22950;DHT22;11641;51.018;4.474;2023-03-03T07:54:40;5.00;99.90
22950;DHT22;11641;51.018;4.474;2023-03-03T07:57:18;5.00;99.90
22950;DHT22;11641;51.018;4.474;2023-03-03T07:59:50;5.00;99.90
22950;DHT22;11641;51.018;4.474;2023-03-03T08:04:55;5.10;99.90
22950;DHT22;11641;51.018;4.474;2023-03-03T08:07:22;5.20;99.90
22950;DHT22;11641;51.018;4.474;2023-03-03T08:09:49;5.30;99.90
22950;DHT22;11641;51.018;4.474;2023-03-03T08:12:39;5.20;99.90
22950;DHT22;11641;51.018;4.474;2023-03-03T08:15:24;5.20;99.90
22950;DHT22;11641;51.018;4.474;2023-03-03T08:17:56;5.20;99.90
22950;DHT22;11641;51.018;4.474;2023-03-03T08:20:58;5.10;99.90
22950;DHT22;11641;51.018;4.474;2023-03-03T08:23:27;5.20;99.90
22950;DHT22;11641;51.018;4.474;2023-03-03T08:25:53;5.40;99.90
22950;DHT22;11641;51.018;4.474;2023-03-03T08:28:20;5.30;99.90
22950;DHT22;11641;51.018;4.474;2023-03-03T08:30:54;5.50;99.90
22950;DHT22;11641;51.018;4.474;2023-03-03T08:33:23;5.50;99.90
22950;DHT22;11641;51.018;4.474;2023-03-03T08:36:15;5.60;99.90
22950;DHT22;11641;51.018;4.474;2023-03-03T08:38:40;5.50;99.90
22950;DHT22;11641;51.018;4.474;2023-03-03T08:41:07;5.60;99.90
22950;DHT22;11641;51.018;4.474;2023-03-03T08:43:33;5.80;99.90
22950;DHT22;11641;51.018;4.474;2023-03-03T08:46:00;5.90;99.90
22950;DHT22;11641;51.018;4.474;2023-03-03T08:48:35;6.00;99.90
22950;DHT22;11641;51.018;4.474;2023-03-03T08:51:14;6.00;99.90
22950;DHT22;11641;51.018;4.474;2023-03-03T08:53:39;6.10;99.90
22950;DHT22;11641;51.018;4.474;2023-03-03T08:56:05;6.10;99.90
22950;DHT22;11641;51.018;4.474;2023-03-03T08:58:40;5.90;99.90
22950;DHT22;11641;51.018;4.474;2023-03-03T09:01:15;5.90;99.90
22950;DHT22;11641;51.018;4.474;2023-03-03T09:03:42;6.10;99.90
22950;DHT22;11641;51.018;4.474;2023-03-03T09:06:08;6.20;99.90
22950;DHT22;11641;51.018;4.474;2023-03-03T09:08:34;6.20;99.90
22950;DHT22;11641;51.018;4.474;2023-03-03T09:11:00;6.20;99.90
22950;DHT22;11641;51.018;4.474;2023-03-03T09:13:29;6.30;99.90
22950;DHT22;11641;51.018;4.474;2023-03-03T09:15:56;6.30;99.90
22950;DHT22;11641;51.018;4.474;2023-03-03T09:18:36;6.40;99.90
22950;DHT22;11641;51.018;4.474;2023-03-03T09:21:22;6.40;99.90
22950;DHT22;11641;51.018;4.474;2023-03-03T09:23:59;6.40;99.90
22950;DHT22;11641;51.018;4.474;2023-03-03T09:26:29;6.60;99.90
22950;DHT22;11641;51.018;4.474;2023-03-03T09:29:22;6.60;99.90
22950;DHT22;11641;51.018;4.474;2023-03-03T09:32:01;6.70;99.90
22950;DHT22;11641;51.018;4.474;2023-03-03T09:34:41;6.80;99.90
22950;DHT22;11641;51.018;4.474;2023-03-03T09:37:27;6.80;99.90
22950;DHT22;11641;51.018;4.474;2023-03-03T09:39:57;6.80;99.90
22950;DHT22;11641;51.018;4.474;2023-03-03T09:56:15;7.00;99.90
22950;DHT22;11641;51.018;4.474;2023-03-03T10:06:52;7.20;99.90
22950;DHT22;11641;51.018;4.474;2023-03-03T10:09:38;7.20;99.90
22950;DHT22;11641;51.018;4.474;2023-03-03T10:15:01;7.40;99.90
22950;DHT22;11641;51.018;4.474;2023-03-03T10:20:28;7.50;99.90
22950;DHT22;11641;51.018;4.474;2023-03-03T10:23:34;7.80;99.90
22950;DHT22;11641;51.018;4.474;2023-03-03T10:29:17;8.00;99.90
22950;DHT22;11641;51.018;4.474;2023-03-03T10:32:19;8.30;99.90
22950;DHT22;11641;51.018;4.474;2023-03-03T10:40:57;8.50;99.90
22950;DHT22;11641;51.018;4.474;2023-03-03T11:02:24;10.50;99.90
22950;DHT22;11641;51.018;4.474;2023-03-03T11:07:47;11.30;99.90
22950;DHT22;11641;51.018;4.474;2023-03-03T11:13:15;11.80;99.90
22950;DHT22;11641;51.018;4.474;2023-03-03T11:21:12;13.00;99.90
22950;DHT22;11641;51.018;4.474;2023-03-03T11:24:10;13.20;99.90
22950;DHT22;11641;51.018;4.474;2023-03-03T11:27:16;13.00;99.90
22950;DHT22;11641;51.018;4.474;2023-03-03T11:37:58;12.50;99.90
22950;DHT22;11641;51.018;4.474;2023-03-03T11:45:58;13.50;99.90
22950;DHT22;11641;51.018;4.474;2023-03-03T11:48:51;17.60;94.80
22950;DHT22;11641;51.018;4.474;2023-03-03T11:54:14;22.80;67.20
22950;DHT22;11641;51.018;4.474;2023-03-03T11:56:46;24.60;58.80
22950;DHT22;11641;51.018;4.474;2023-03-03T12:04:48;27.40;49.00
22950;DHT22;11641;51.018;4.474;2023-03-03T12:12:54;29.70;44.60
22950;DHT22;11641;51.018;4.474;2023-03-03T12:15:40;31.20;41.80
22950;DHT22;11641;51.018;4.474;2023-03-03T12:23:40;27.50;45.00
22950;DHT22;11641;51.018;4.474;2023-03-03T12:28:46;29.00;42.10
22950;DHT22;11641;51.018;4.474;2023-03-03T12:31:24;28.40;42.70
22950;DHT22;11641;51.018;4.474;2023-03-03T12:45:21;22.90;52.10
22950;DHT22;11641;51.018;4.474;2023-03-03T12:47:55;26.40;47.20
22950;DHT22;11641;51.018;4.474;2023-03-03T12:50:51;29.00;43.10
22950;DHT22;11641;51.018;4.474;2023-03-03T12:56:07;32.10;39.20
22950;DHT22;11641;51.018;4.474;2023-03-03T13:06:45;33.80;35.60
22950;DHT22;11641;51.018;4.474;2023-03-03T13:14:40;32.10;36.30
22950;DHT22;11641;51.018;4.474;2023-03-03T13:19:58;32.70;36.10
22950;DHT22;11641;51.018;4.474;2023-03-03T13:27:47;33.60;34.80
22950;DHT22;11641;51.018;4.474;2023-03-03T13:30:21;33.40;34.70
22950;DHT22;11641;51.018;4.474;2023-03-03T13:38:04;34.60;33.90
22950;DHT22;11641;51.018;4.474;2023-03-03T13:51:02;33.00;34.50
22950;DHT22;11641;51.018;4.474;2023-03-03T13:58:52;33.70;34.30
22950;DHT22;11641;51.018;4.474;2023-03-03T14:06:32;33.30;34.50
22950;DHT22;11641;51.018;4.474;2023-03-03T14:09:21;32.80;34.50
22950;DHT22;11641;51.018;4.474;2023-03-03T14:12:22;31.60;36.10
22950;DHT22;11641;51.018;4.474;2023-03-03T14:14:58;31.70;36.20
22950;DHT22;11641;51.018;4.474;2023-03-03T14:17:43;32.60;35.40
22950;DHT22;11641;51.018;4.474;2023-03-03T14:20:27;33.50;35.00
22950;DHT22;11641;51.018;4.474;2023-03-03T14:23:00;33.80;34.30
22950;DHT22;11641;51.018;4.474;2023-03-03T14:25:51;33.10;34.20
22950;DHT22;11641;51.018;4.474;2023-03-03T14:28:21;33.10;34.50
22950;DHT22;11641;51.018;4.474;2023-03-03T14:30:47;33.30;35.00
22950;DHT22;11641;51.018;4.474;2023-03-03T14:35:39;33.10;34.60
22950;DHT22;11641;51.018;4.474;2023-03-03T14:38:12;32.30;35.20
22950;DHT22;11641;51.018;4.474;2023-03-03T14:40:40;32.30;35.10
22950;DHT22;11641;51.018;4.474;2023-03-03T14:43:25;33.20;34.60
22950;DHT22;11641;51.018;4.474;2023-03-03T14:45:54;33.40;34.10
22950;DHT22;11641;51.018;4.474;2023-03-03T14:48:21;33.10;34.00
22950;DHT22;11641;51.018;4.474;2023-03-03T14:51:21;32.50;35.10
22950;DHT22;11641;51.018;4.474;2023-03-03T14:53:47;32.50;34.50
22950;DHT22;11641;51.018;4.474;2023-03-03T14:58:50;30.70;37.20
22950;DHT22;11641;51.018;4.474;2023-03-03T15:01:23;30.40;36.50
22950;DHT22;11641;51.018;4.474;2023-03-03T15:09:21;31.70;36.20
22950;DHT22;11641;51.018;4.474;2023-03-03T15:11:57;31.70;35.30
22950;DHT22;11641;51.018;4.474;2023-03-03T15:14:34;31.00;35.80
22950;DHT22;11641;51.018;4.474;2023-03-03T15:42:03;28.70;38.70
22950;DHT22;11641;51.018;4.474;2023-03-03T15:47:42;24.50;43.40
22950;DHT22;11641;51.018;4.474;2023-03-03T15:50:37;22.40;46.90
22950;DHT22;11641;51.018;4.474;2023-03-03T15:53:40;20.50;50.50
22950;DHT22;11641;51.018;4.474;2023-03-03T15:56:21;18.90;54.00
22950;DHT22;11641;51.018;4.474;2023-03-03T16:04:14;16.60;58.90
22950;DHT22;11641;51.018;4.474;2023-03-03T16:24:14;19.20;53.70
22950;DHT22;11641;51.018;4.474;2023-03-03T16:27:15;18.40;55.40
22950;DHT22;11641;51.018;4.474;2023-03-03T16:32:50;19.30;54.60
22950;DHT22;11641;51.018;4.474;2023-03-03T16:40:25;17.30;56.90
22950;DHT22;11641;51.018;4.474;2023-03-03T16:45:46;15.50;61.20
22950;DHT22;11641;51.018;4.474;2023-03-03T16:48:25;14.80;63.90
22950;DHT22;11641;51.018;4.474;2023-03-03T16:51:08;14.40;65.70
22950;DHT22;11641;51.018;4.474;2023-03-03T16:56:43;13.50;68.20
22950;DHT22;11641;51.018;4.474;2023-03-03T17:07:36;12.00;76.50
22950;DHT22;11641;51.018;4.474;2023-03-03T17:18:49;11.40;83.40
22950;DHT22;11641;51.018;4.474;2023-03-03T17:32:27;10.00;94.80
22950;DHT22;11641;51.018;4.474;2023-03-03T17:43:15;9.50;99.90
22950;DHT22;11641;51.018;4.474;2023-03-03T17:45:44;9.30;99.90
22950;DHT22;11641;51.018;4.474;2023-03-03T17:56:56;9.00;99.90
22950;DHT22;11641;51.018;4.474;2023-03-03T18:21:51;9.40;99.90
22950;DHT22;11641;51.018;4.474;2023-03-03T18:24:38;9.40;99.90
22950;DHT22;11641;51.018;4.474;2023-03-03T18:38:22;9.40;99.90
22950;DHT22;11641;51.018;4.474;2023-03-03T18:40:58;9.50;99.90
22950;DHT22;11641;51.018;4.474;2023-03-03T18:49:12;9.60;99.90
22950;DHT22;11641;51.018;4.474;2023-03-03T18:54:19;9.70;99.90
22950;DHT22;11641;51.018;4.474;2023-03-03T19:02:36;9.50;99.90
22950;DHT22;11641;51.018;4.474;2023-03-03T19:05:25;9.40;99.90
22950;DHT22;11641;51.018;4.474;2023-03-03T19:07:57;9.40;99.90
22950;DHT22;11641;51.018;4.474;2023-03-03T19:10:51;9.30;99.90
22950;DHT22;11641;51.018;4.474;2023-03-03T19:21:29;9.10;99.90
22950;DHT22;11641;51.018;4.474;2023-03-03T19:26:52;9.20;99.90
22950;DHT22;11641;51.018;4.474;2023-03-03T19:43:22;9.30;99.90
22950;DHT22;11641;51.018;4.474;2023-03-03T19:55:25;9.30;99.90
22950;DHT22;11641;51.018;4.474;2023-03-03T20:00:40;9.10;99.90
22950;DHT22;11641;51.018;4.474;2023-03-03T20:11:50;9.20;99.90
22950;DHT22;11641;51.018;4.474;2023-03-03T20:14:38;9.10;99.90
22950;DHT22;11641;51.018;4.474;2023-03-03T20:31:30;9.00;99.90
22950;DHT22;11641;51.018;4.474;2023-03-03T20:37:13;9.00;99.90
22950;DHT22;11641;51.018;4.474;2023-03-03T20:45:39;9.10;99.90
22950;DHT22;11641;51.018;4.474;2023-03-03T20:53:38;8.80;99.90
22950;DHT22;11641;51.018;4.474;2023-03-03T20:56:34;8.70;99.90
22950;DHT22;11641;51.018;4.474;2023-03-03T20:59:14;8.90;99.90
22950;DHT22;11641;51.018;4.474;2023-03-03T21:04:28;8.80;99.90
22950;DHT22;11641;51.018;4.474;2023-03-03T21:06:55;8.70;99.90
22950;DHT22;11641;51.018;4.474;2023-03-03T21:09:38;8.80;99.90
22950;DHT22;11641;51.018;4.474;2023-03-03T21:12:27;8.80;99.90
22950;DHT22;11641;51.018;4.474;2023-03-03T21:15:01;8.80;99.90
22950;DHT22;11641;51.018;4.474;2023-03-03T21:17:29;8.70;99.90
22950;DHT22;11641;51.018;4.474;2023-03-03T21:19:59;8.60;99.90
22950;DHT22;11641;51.018;4.474;2023-03-03T21:22:40;8.70;99.90
22950;DHT22;11641;51.018;4.474;2023-03-03T21:25:06;8.70;99.90
22950;DHT22;11641;51.018;4.474;2023-03-03T21:27:34;8.70;99.90
22950;DHT22;11641;51.018;4.474;2023-03-03T21:30:13;8.80;99.90
22950;DHT22;11641;51.018;4.474;2023-03-03T21:32:42;8.70;99.90
22950;DHT22;11641;51.018;4.474;2023-03-03T21:35:16;8.70;99.90
22950;DHT22;11641;51.018;4.474;2023-03-03T21:37:45;8.80;99.90
22950;DHT22;11641;51.018;4.474;2023-03-03T21:40:27;8.70;99.90
22950;DHT22;11641;51.018;4.474;2023-03-03T21:42:55;8.90;99.90
22950;DHT22;11641;51.018;4.474;2023-03-03T21:45:22;8.70;99.90
22950;DHT22;11641;51.018;4.474;2023-03-03T21:47:51;8.70;99.90
22950;DHT22;11641;51.018;4.474;2023-03-03T21:50:19;8.60;99.90
22950;DHT22;11641;51.018;4.474;2023-03-03T21:52:48;8.70;99.90
22950;DHT22;11641;51.018;4.474;2023-03-03T21:55:15;8.70;99.90
22950;DHT22;11641;51.018;4.474;2023-03-03T21:57:40;8.80;99.90
22950;DHT22;11641;51.018;4.474;2023-03-03T22:00:08;8.80;99.90
22950;DHT22;11641;51.018;4.474;2023-03-03T22:02:39;8.60;99.90
22950;DHT22;11641;51.018;4.474;2023-03-03T22:05:05;8.60;99.90
22950;DHT22;11641;51.018;4.474;2023-03-03T22:07:32;8.60;99.90
22950;DHT22;11641;51.018;4.474;2023-03-03T22:09:57;8.70;99.90
22950;DHT22;11641;51.018;4.474;2023-03-03T22:12:23;8.70;99.90
22950;DHT22;11641;51.018;4.474;2023-03-03T22:14:49;8.50;99.90
22950;DHT22;11641;51.018;4.474;2023-03-03T22:17:15;8.60;99.90
22950;DHT22;11641;51.018;4.474;2023-03-03T22:19:41;8.60;99.90
22950;DHT22;11641;51.018;4.474;2023-03-03T22:22:06;8.60;99.90
22950;DHT22;11641;51.018;4.474;2023-03-03T22:24:32;8.50;99.90
22950;DHT22;11641;51.018;4.474;2023-03-03T22:26:58;8.70;99.90
22950;DHT22;11641;51.018;4.474;2023-03-03T22:29:24;8.80;99.90
22950;DHT22;11641;51.018;4.474;2023-03-03T22:31:51;8.50;99.90
22950;DHT22;11641;51.018;4.474;2023-03-03T22:34:18;8.40;99.90
22950;DHT22;11641;51.018;4.474;2023-03-03T22:36:43;8.40;99.90
22950;DHT22;11641;51.018;4.474;2023-03-03T22:39:09;8.40;99.90
22950;DHT22;11641;51.018;4.474;2023-03-03T22:41:35;8.30;99.90
22950;DHT22;11641;51.018;4.474;2023-03-03T22:44:01;8.40;99.90
22950;DHT22;11641;51.018;4.474;2023-03-03T22:46:27;8.40;99.90
22950;DHT22;11641;51.018;4.474;2023-03-03T22:48:53;8.40;99.90
22950;DHT22;11641;51.018;4.474;2023-03-03T22:51:20;8.50;99.90
22950;DHT22;11641;51.018;4.474;2023-03-03T22:53:46;8.50;99.90
22950;DHT22;11641;51.018;4.474;2023-03-03T22:56:12;8.70;99.90
22950;DHT22;11641;51.018;4.474;2023-03-03T22:58:38;8.80;99.90
22950;DHT22;11641;51.018;4.474;2023-03-03T23:01:06;8.70;99.90
22950;DHT22;11641;51.018;4.474;2023-03-03T23:03:32;8.60;99.90
22950;DHT22;11641;51.018;4.474;2023-03-03T23:06:00;8.60;99.90
22950;DHT22;11641;51.018;4.474;2023-03-03T23:08:26;8.60;99.90
22950;DHT22;11641;51.018;4.474;2023-03-03T23:10:52;8.60;99.90
22950;DHT22;11641;51.018;4.474;2023-03-03T23:13:17;8.60;99.90
22950;DHT22;11641;51.018;4.474;2023-03-03T23:15:46;8.50;99.90